sensor_id;sensor_type;location;lat;lon;timestamp;P1;durP1;ratioP1;P2;durP2;ratioP2
3565;SDS011;1797;51.844;7.684;2023-05-10T00:01:05;1.80;;;1.00;;
3565;SDS011;1797;51.844;7.684;2023-05-10T00:03:31;0.53;;;0.53;;
3565;SDS011;1797;51.844;7.684;2023-05-10T00:05:57;0.50;;;0.50;;
3565;SDS011;1797;51.844;7.684;2023-05-10T00:08:22;1.20;;;1.10;;
3565;SDS011;1797;51.844;7.684;2023-05-10T00:10:48;0.80;;;0.80;;
3565;SDS011;1797;51.844;7.684;2023-05-10T00:13:14;0.43;;;0.43;;
3565;SDS011;1797;51.844;7.684;2023-05-10T00:15:40;1.40;;;1.30;;
3565;SDS011;1797;51.844;7.684;2023-05-10T00:18:06;0.70;;;0.70;;
3565;SDS011;1797;51.844;7.684;2023-05-10T00:20:31;0.60;;;0.50;;
3565;SDS011;1797;51.844;7.684;2023-05-10T00:22:57;1.60;;;1.05;;
3565;SDS011;1797;51.844;7.684;2023-05-10T00:25:22;1.90;;;0.70;;
3565;SDS011;1797;51.844;7.684;2023-05-10T00:27:48;0.60;;;0.60;;
3565;SDS011;1797;51.844;7.684;2023-05-10T00:30:14;0.80;;;0.80;;
3565;SDS011;1797;51.844;7.684;2023-05-10T00:32:40;1.60;;;1.00;;
3565;SDS011;1797;51.844;7.684;2023-05-10T00:35:05;1.45;;;0.77;;
3565;SDS011;1797;51.844;7.684;2023-05-10T00:37:31;0.65;;;0.65;;
3565;SDS011;1797;51.844;7.684;2023-05-10T00:39:57;2.00;;;0.60;;
3565;SDS011;1797;51.844;7.684;2023-05-10T00:42:22;2.07;;;0.90;;
3565;SDS011;1797;51.844;7.684;2023-05-10T00:44:48;1.60;;;0.90;;
3565;SDS011;1797;51.844;7.684;2023-05-10T00:47:13;0.70;;;0.70;;
3565;SDS011;1797;51.844;7.684;2023-05-10T00:49:40;0.70;;;0.63;;
3565;SDS011;1797;51.844;7.684;2023-05-10T00:52:06;0.80;;;0.80;;
3565;SDS011;1797;51.844;7.684;2023-05-10T00:54:32;0.40;;;0.40;;
3565;SDS011;1797;51.844;7.684;2023-05-10T00:56:58;1.30;;;0.35;;
3565;SDS011;1797;51.844;7.684;2023-05-10T00:59:24;0.70;;;0.70;;
3565;SDS011;1797;51.844;7.684;2023-05-10T01:01:50;1.10;;;0.40;;
3565;SDS011;1797;51.844;7.684;2023-05-10T01:04:16;0.90;;;0.85;;
3565;SDS011;1797;51.844;7.684;2023-05-10T01:06:42;2.90;;;1.00;;
3565;SDS011;1797;51.844;7.684;2023-05-10T01:09:08;1.02;;;0.70;;
3565;SDS011;1797;51.844;7.684;2023-05-10T01:11:35;2.90;;;1.20;;
3565;SDS011;1797;51.844;7.684;2023-05-10T01:14:02;2.00;;;1.40;;
3565;SDS011;1797;51.844;7.684;2023-05-10T01:16:29;0.40;;;0.30;;
3565;SDS011;1797;51.844;7.684;2023-05-10T01:19:01;3.30;;;0.70;;
3565;SDS011;1797;51.844;7.684;2023-05-10T01:24:37;1.20;;;1.05;;
3565;SDS011;1797;51.844;7.684;2023-05-10T01:43:55;0.60;;;0.47;;
3565;SDS011;1797;51.844;7.684;2023-05-10T01:46:35;0.90;;;0.60;;
3565;SDS011;1797;51.844;7.684;2023-05-10T01:49:03;3.30;;;0.60;;
3565;SDS011;1797;51.844;7.684;2023-05-10T01:51:41;1.00;;;0.40;;
3565;SDS011;1797;51.844;7.684;2023-05-10T01:54:12;0.60;;;0.60;;
3565;SDS011;1797;51.844;7.684;2023-05-10T01:56:39;0.40;;;0.40;;
3565;SDS011;1797;51.844;7.684;2023-05-10T01:59:08;0.40;;;0.30;;
3565;SDS011;1797;51.844;7.684;2023-05-10T02:01:39;0.40;;;0.30;;
3565;SDS011;1797;51.844;7.684;2023-05-10T02:04:07;0.40;;;0.30;;
3565;SDS011;1797;51.844;7.684;2023-05-10T02:06:34;1.10;;;0.70;;
3565;SDS011;1797;51.844;7.684;2023-05-10T02:09:01;0.40;;;0.40;;
3565;SDS011;1797;51.844;7.684;2023-05-10T02:11:29;0.40;;;0.30;;
3565;SDS011;1797;51.844;7.684;2023-05-10T02:13:56;0.40;;;0.30;;
3565;SDS011;1797;51.844;7.684;2023-05-10T02:16:24;0.50;;;0.50;;
3565;SDS011;1797;51.844;7.684;2023-05-10T02:18:51;0.40;;;0.30;;
3565;SDS011;1797;51.844;7.684;2023-05-10T02:21:18;0.40;;;0.30;;
3565;SDS011;1797;51.844;7.684;2023-05-10T02:23:45;0.40;;;0.40;;
3565;SDS011;1797;51.844;7.684;2023-05-10T02:26:13;0.40;;;0.30;;
3565;SDS011;1797;51.844;7.684;2023-05-10T02:28:40;0.40;;;0.30;;
3565;SDS011;1797;51.844;7.684;2023-05-10T02:31:08;0.40;;;0.30;;
3565;SDS011;1797;51.844;7.684;2023-05-10T02:33:35;0.40;;;0.30;;
3565;SDS011;1797;51.844;7.684;2023-05-10T02:36:05;0.40;;;0.30;;
3565;SDS011;1797;51.844;7.684;2023-05-10T02:38:33;0.40;;;0.30;;
3565;SDS011;1797;51.844;7.684;2023-05-10T02:41:01;0.40;;;0.30;;
3565;SDS011;1797;51.844;7.684;2023-05-10T02:43:30;0.40;;;0.30;;
3565;SDS011;1797;51.844;7.684;2023-05-10T02:45:58;0.40;;;0.30;;
3565;SDS011;1797;51.844;7.684;2023-05-10T02:48:23;0.40;;;0.30;;
3565;SDS011;1797;51.844;7.684;2023-05-10T02:50:50;0.70;;;0.50;;
3565;SDS011;1797;51.844;7.684;2023-05-10T02:53:23;0.60;;;0.50;;
3565;SDS011;1797;51.844;7.684;2023-05-10T02:56:00;0.40;;;0.30;;
3565;SDS011;1797;51.844;7.684;2023-05-10T02:58:31;0.40;;;0.30;;
3565;SDS011;1797;51.844;7.684;2023-05-10T03:00:57;0.40;;;0.30;;
3565;SDS011;1797;51.844;7.684;2023-05-10T03:03:24;0.50;;;0.50;;
3565;SDS011;1797;51.844;7.684;2023-05-10T03:05:50;0.80;;;0.55;;
3565;SDS011;1797;51.844;7.684;2023-05-10T03:08:15;0.40;;;0.30;;
3565;SDS011;1797;51.844;7.684;2023-05-10T03:10:45;0.50;;;0.40;;
3565;SDS011;1797;51.844;7.684;2023-05-10T03:13:29;0.60;;;0.60;;
3565;SDS011;1797;51.844;7.684;2023-05-10T03:16:15;0.40;;;0.30;;
3565;SDS011;1797;51.844;7.684;2023-05-10T03:18:48;0.43;;;0.40;;
3565;SDS011;1797;51.844;7.684;2023-05-10T03:21:19;0.40;;;0.30;;
3565;SDS011;1797;51.844;7.684;2023-05-10T03:23:51;1.50;;;0.60;;
3565;SDS011;1797;51.844;7.684;2023-05-10T03:26:25;0.40;;;0.30;;
3565;SDS011;1797;51.844;7.684;2023-05-10T03:28:52;0.50;;;0.50;;
3565;SDS011;1797;51.844;7.684;2023-05-10T03:31:18;0.50;;;0.40;;
3565;SDS011;1797;51.844;7.684;2023-05-10T03:33:47;0.80;;;0.80;;
3565;SDS011;1797;51.844;7.684;2023-05-10T03:36:13;0.40;;;0.30;;
3565;SDS011;1797;51.844;7.684;2023-05-10T03:38:39;0.70;;;0.70;;
3565;SDS011;1797;51.844;7.684;2023-05-10T03:41:04;0.50;;;0.50;;
3565;SDS011;1797;51.844;7.684;2023-05-10T03:43:30;0.40;;;0.30;;
3565;SDS011;1797;51.844;7.684;2023-05-10T03:45:55;0.40;;;0.30;;
3565;SDS011;1797;51.844;7.684;2023-05-10T03:48:21;0.70;;;0.70;;
3565;SDS011;1797;51.844;7.684;2023-05-10T03:50:46;0.40;;;0.30;;
3565;SDS011;1797;51.844;7.684;2023-05-10T03:53:14;0.90;;;0.60;;
3565;SDS011;1797;51.844;7.684;2023-05-10T03:55:40;1.00;;;1.00;;
3565;SDS011;1797;51.844;7.684;2023-05-10T03:58:05;0.70;;;0.70;;
3565;SDS011;1797;51.844;7.684;2023-05-10T04:00:31;0.40;;;0.32;;
3565;SDS011;1797;51.844;7.684;2023-05-10T04:02:57;0.50;;;0.50;;
3565;SDS011;1797;51.844;7.684;2023-05-10T04:05:23;0.40;;;0.40;;
3565;SDS011;1797;51.844;7.684;2023-05-10T04:07:48;0.70;;;0.40;;
3565;SDS011;1797;51.844;7.684;2023-05-10T04:10:15;0.70;;;0.50;;
3565;SDS011;1797;51.844;7.684;2023-05-10T04:12:41;1.40;;;1.20;;
3565;SDS011;1797;51.844;7.684;2023-05-10T04:15:07;1.30;;;0.60;;
3565;SDS011;1797;51.844;7.684;2023-05-10T04:17:33;0.60;;;0.60;;
3565;SDS011;1797;51.844;7.684;2023-05-10T04:19:58;1.08;;;0.60;;
3565;SDS011;1797;51.844;7.684;2023-05-10T04:22:24;0.80;;;0.80;;
3565;SDS011;1797;51.844;7.684;2023-05-10T04:24:50;0.60;;;0.40;;
3565;SDS011;1797;51.844;7.684;2023-05-10T04:27:15;0.40;;;0.30;;
3565;SDS011;1797;51.844;7.684;2023-05-10T04:29:41;1.02;;;0.90;;
3565;SDS011;1797;51.844;7.684;2023-05-10T04:32:06;0.40;;;0.30;;
3565;SDS011;1797;51.844;7.684;2023-05-10T04:34:33;0.60;;;0.57;;
3565;SDS011;1797;51.844;7.684;2023-05-10T04:36:59;1.80;;;0.90;;
3565;SDS011;1797;51.844;7.684;2023-05-10T04:39:24;0.40;;;0.30;;
3565;SDS011;1797;51.844;7.684;2023-05-10T04:41:50;1.60;;;1.10;;
3565;SDS011;1797;51.844;7.684;2023-05-10T04:44:15;0.95;;;0.93;;
3565;SDS011;1797;51.844;7.684;2023-05-10T04:46:41;0.82;;;0.75;;
3565;SDS011;1797;51.844;7.684;2023-05-10T04:49:07;0.40;;;0.32;;
3565;SDS011;1797;51.844;7.684;2023-05-10T04:51:32;0.50;;;0.50;;
3565;SDS011;1797;51.844;7.684;2023-05-10T04:53:58;1.30;;;1.20;;
3565;SDS011;1797;51.844;7.684;2023-05-10T04:56:23;0.60;;;0.60;;
3565;SDS011;1797;51.844;7.684;2023-05-10T04:58:49;1.60;;;1.50;;
3565;SDS011;1797;51.844;7.684;2023-05-10T05:01:15;1.40;;;1.10;;
3565;SDS011;1797;51.844;7.684;2023-05-10T05:03:40;0.40;;;0.30;;
3565;SDS011;1797;51.844;7.684;2023-05-10T05:06:07;1.10;;;1.00;;
3565;SDS011;1797;51.844;7.684;2023-05-10T05:08:32;0.55;;;0.55;;
3565;SDS011;1797;51.844;7.684;2023-05-10T05:10:58;0.70;;;0.70;;
3565;SDS011;1797;51.844;7.684;2023-05-10T05:13:24;1.50;;;1.00;;
3565;SDS011;1797;51.844;7.684;2023-05-10T05:15:49;3.53;;;0.73;;
3565;SDS011;1797;51.844;7.684;2023-05-10T05:18:15;0.70;;;0.70;;
3565;SDS011;1797;51.844;7.684;2023-05-10T05:20:41;2.40;;;1.30;;
3565;SDS011;1797;51.844;7.684;2023-05-10T05:23:06;0.80;;;0.40;;
3565;SDS011;1797;51.844;7.684;2023-05-10T05:25:32;3.13;;;1.90;;
3565;SDS011;1797;51.844;7.684;2023-05-10T05:27:58;6.10;;;0.85;;
3565;SDS011;1797;51.844;7.684;2023-05-10T05:30:23;2.10;;;1.40;;
3565;SDS011;1797;51.844;7.684;2023-05-10T05:32:49;0.40;;;0.30;;
3565;SDS011;1797;51.844;7.684;2023-05-10T05:35:14;1.63;;;1.52;;
3565;SDS011;1797;51.844;7.684;2023-05-10T05:37:40;3.50;;;1.25;;
3565;SDS011;1797;51.844;7.684;2023-05-10T05:40:06;1.60;;;1.20;;
3565;SDS011;1797;51.844;7.684;2023-05-10T05:42:32;0.70;;;0.70;;
3565;SDS011;1797;51.844;7.684;2023-05-10T05:44:57;1.50;;;0.90;;
3565;SDS011;1797;51.844;7.684;2023-05-10T05:47:23;6.30;;;2.20;;
3565;SDS011;1797;51.844;7.684;2023-05-10T05:49:48;1.83;;;1.23;;
3565;SDS011;1797;51.844;7.684;2023-05-10T05:52:14;2.53;;;1.43;;
3565;SDS011;1797;51.844;7.684;2023-05-10T05:54:40;6.73;;;1.37;;
3565;SDS011;1797;51.844;7.684;2023-05-10T05:57:06;2.20;;;2.00;;
3565;SDS011;1797;51.844;7.684;2023-05-10T05:59:32;3.88;;;1.80;;
3565;SDS011;1797;51.844;7.684;2023-05-10T06:01:57;1.37;;;1.00;;
3565;SDS011;1797;51.844;7.684;2023-05-10T06:04:23;2.90;;;0.90;;
3565;SDS011;1797;51.844;7.684;2023-05-10T06:06:49;4.67;;;1.93;;
3565;SDS011;1797;51.844;7.684;2023-05-10T06:09:14;3.10;;;1.90;;
3565;SDS011;1797;51.844;7.684;2023-05-10T06:11:40;2.70;;;1.25;;
3565;SDS011;1797;51.844;7.684;2023-05-10T06:14:06;2.60;;;1.60;;
3565;SDS011;1797;51.844;7.684;2023-05-10T06:16:33;0.73;;;0.73;;
3565;SDS011;1797;51.844;7.684;2023-05-10T06:18:59;3.60;;;1.40;;
3565;SDS011;1797;51.844;7.684;2023-05-10T06:21:25;0.60;;;0.60;;
3565;SDS011;1797;51.844;7.684;2023-05-10T06:23:50;4.03;;;2.70;;
3565;SDS011;1797;51.844;7.684;2023-05-10T06:26:16;4.20;;;1.10;;
3565;SDS011;1797;51.844;7.684;2023-05-10T06:28:42;1.67;;;1.57;;
3565;SDS011;1797;51.844;7.684;2023-05-10T06:31:07;2.40;;;1.60;;
3565;SDS011;1797;51.844;7.684;2023-05-10T06:33:33;1.70;;;1.37;;
3565;SDS011;1797;51.844;7.684;2023-05-10T06:35:59;2.43;;;2.23;;
3565;SDS011;1797;51.844;7.684;2023-05-10T06:38:25;1.73;;;1.63;;
3565;SDS011;1797;51.844;7.684;2023-05-10T06:40:50;3.10;;;2.10;;
3565;SDS011;1797;51.844;7.684;2023-05-10T06:43:16;1.40;;;1.30;;
3565;SDS011;1797;51.844;7.684;2023-05-10T06:45:42;7.57;;;3.25;;
3565;SDS011;1797;51.844;7.684;2023-05-10T06:48:07;1.80;;;1.60;;
3565;SDS011;1797;51.844;7.684;2023-05-10T06:50:33;5.00;;;2.63;;
3565;SDS011;1797;51.844;7.684;2023-05-10T06:52:59;4.68;;;3.33;;
3565;SDS011;1797;51.844;7.684;2023-05-10T06:55:26;3.00;;;2.80;;
3565;SDS011;1797;51.844;7.684;2023-05-10T06:57:52;3.08;;;2.47;;
3565;SDS011;1797;51.844;7.684;2023-05-10T07:00:18;2.15;;;1.63;;
3565;SDS011;1797;51.844;7.684;2023-05-10T07:02:44;4.40;;;1.45;;
3565;SDS011;1797;51.844;7.684;2023-05-10T07:05:10;2.13;;;1.88;;
3565;SDS011;1797;51.844;7.684;2023-05-10T07:07:35;5.40;;;2.60;;
3565;SDS011;1797;51.844;7.684;2023-05-10T07:10:01;13.48;;;3.20;;
3565;SDS011;1797;51.844;7.684;2023-05-10T07:12:27;4.40;;;2.17;;
3565;SDS011;1797;51.844;7.684;2023-05-10T07:14:53;2.30;;;2.00;;
3565;SDS011;1797;51.844;7.684;2023-05-10T07:17:18;7.50;;;3.90;;
3565;SDS011;1797;51.844;7.684;2023-05-10T07:19:44;10.70;;;2.60;;
3565;SDS011;1797;51.844;7.684;2023-05-10T07:22:10;6.00;;;2.17;;
3565;SDS011;1797;51.844;7.684;2023-05-10T07:24:35;3.00;;;2.70;;
3565;SDS011;1797;51.844;7.684;2023-05-10T07:27:01;3.20;;;2.50;;
3565;SDS011;1797;51.844;7.684;2023-05-10T07:29:27;3.07;;;1.87;;
3565;SDS011;1797;51.844;7.684;2023-05-10T07:31:53;3.72;;;2.38;;
3565;SDS011;1797;51.844;7.684;2023-05-10T07:34:19;3.53;;;2.53;;
3565;SDS011;1797;51.844;7.684;2023-05-10T07:36:44;5.00;;;3.00;;
3565;SDS011;1797;51.844;7.684;2023-05-10T07:39:10;3.97;;;3.40;;
3565;SDS011;1797;51.844;7.684;2023-05-10T07:41:35;10.77;;;3.53;;
3565;SDS011;1797;51.844;7.684;2023-05-10T07:44:02;7.10;;;4.47;;
3565;SDS011;1797;51.844;7.684;2023-05-10T07:46:28;5.45;;;3.75;;
3565;SDS011;1797;51.844;7.684;2023-05-10T07:48:54;3.25;;;3.05;;
3565;SDS011;1797;51.844;7.684;2023-05-10T07:51:20;6.28;;;3.05;;
3565;SDS011;1797;51.844;7.684;2023-05-10T07:53:46;8.20;;;3.38;;
3565;SDS011;1797;51.844;7.684;2023-05-10T07:56:25;15.00;;;4.20;;
3565;SDS011;1797;51.844;7.684;2023-05-10T07:58:56;4.30;;;2.45;;
3565;SDS011;1797;51.844;7.684;2023-05-10T08:01:22;7.87;;;2.57;;
3565;SDS011;1797;51.844;7.684;2023-05-10T08:03:48;4.00;;;3.00;;
3565;SDS011;1797;51.844;7.684;2023-05-10T08:06:16;2.97;;;2.38;;
3565;SDS011;1797;51.844;7.684;2023-05-10T08:08:42;5.53;;;3.28;;
3565;SDS011;1797;51.844;7.684;2023-05-10T08:11:08;7.00;;;2.83;;
3565;SDS011;1797;51.844;7.684;2023-05-10T08:13:33;3.50;;;2.73;;
3565;SDS011;1797;51.844;7.684;2023-05-10T08:15:59;2.65;;;2.05;;
3565;SDS011;1797;51.844;7.684;2023-05-10T08:18:25;4.72;;;2.90;;
3565;SDS011;1797;51.844;7.684;2023-05-10T08:20:51;3.10;;;2.80;;
3565;SDS011;1797;51.844;7.684;2023-05-10T08:23:16;4.47;;;2.60;;
3565;SDS011;1797;51.844;7.684;2023-05-10T08:25:42;6.80;;;2.55;;
3565;SDS011;1797;51.844;7.684;2023-05-10T08:28:08;2.78;;;2.42;;
3565;SDS011;1797;51.844;7.684;2023-05-10T08:30:33;6.95;;;2.78;;
3565;SDS011;1797;51.844;7.684;2023-05-10T08:32:59;4.73;;;2.33;;
3565;SDS011;1797;51.844;7.684;2023-05-10T08:35:25;4.90;;;2.10;;
3565;SDS011;1797;51.844;7.684;2023-05-10T08:37:50;7.63;;;3.63;;
3565;SDS011;1797;51.844;7.684;2023-05-10T08:40:16;5.18;;;2.35;;
3565;SDS011;1797;51.844;7.684;2023-05-10T08:42:47;5.00;;;2.60;;
3565;SDS011;1797;51.844;7.684;2023-05-10T08:45:19;13.70;;;4.30;;
3565;SDS011;1797;51.844;7.684;2023-05-10T08:47:49;3.50;;;2.40;;
3565;SDS011;1797;51.844;7.684;2023-05-10T08:50:17;1.90;;;1.80;;
3565;SDS011;1797;51.844;7.684;2023-05-10T08:52:45;5.43;;;2.63;;
3565;SDS011;1797;51.844;7.684;2023-05-10T08:55:13;9.63;;;3.47;;
3565;SDS011;1797;51.844;7.684;2023-05-10T08:57:40;2.90;;;2.17;;
3565;SDS011;1797;51.844;7.684;2023-05-10T09:00:06;5.90;;;3.10;;
3565;SDS011;1797;51.844;7.684;2023-05-10T09:02:33;1.50;;;1.20;;
3565;SDS011;1797;51.844;7.684;2023-05-10T09:04:59;4.05;;;2.53;;
3565;SDS011;1797;51.844;7.684;2023-05-10T09:07:25;8.17;;;2.93;;
3565;SDS011;1797;51.844;7.684;2023-05-10T09:09:50;3.50;;;1.90;;
3565;SDS011;1797;51.844;7.684;2023-05-10T09:12:17;3.20;;;1.98;;
3565;SDS011;1797;51.844;7.684;2023-05-10T09:14:43;2.60;;;2.40;;
3565;SDS011;1797;51.844;7.684;2023-05-10T09:17:10;2.17;;;1.98;;
3565;SDS011;1797;51.844;7.684;2023-05-10T09:19:36;4.63;;;2.53;;
3565;SDS011;1797;51.844;7.684;2023-05-10T09:22:02;5.20;;;1.45;;
3565;SDS011;1797;51.844;7.684;2023-05-10T09:24:29;13.30;;;2.37;;
3565;SDS011;1797;51.844;7.684;2023-05-10T09:26:56;7.15;;;2.58;;
3565;SDS011;1797;51.844;7.684;2023-05-10T09:29:23;4.30;;;2.10;;
3565;SDS011;1797;51.844;7.684;2023-05-10T09:31:52;5.90;;;3.10;;
3565;SDS011;1797;51.844;7.684;2023-05-10T09:34:20;6.57;;;2.10;;
3565;SDS011;1797;51.844;7.684;2023-05-10T09:36:57;6.70;;;2.15;;
3565;SDS011;1797;51.844;7.684;2023-05-10T09:39:38;4.53;;;2.08;;
3565;SDS011;1797;51.844;7.684;2023-05-10T09:42:05;4.03;;;2.80;;
3565;SDS011;1797;51.844;7.684;2023-05-10T09:44:32;4.20;;;3.15;;
3565;SDS011;1797;51.844;7.684;2023-05-10T09:46:59;6.47;;;2.97;;
3565;SDS011;1797;51.844;7.684;2023-05-10T09:49:25;5.28;;;2.10;;
3565;SDS011;1797;51.844;7.684;2023-05-10T09:54:28;2.50;;;2.25;;
3565;SDS011;1797;51.844;7.684;2023-05-10T09:56:53;4.47;;;2.63;;
3565;SDS011;1797;51.844;7.684;2023-05-10T09:59:19;3.78;;;1.52;;
3565;SDS011;1797;51.844;7.684;2023-05-10T10:01:51;3.90;;;1.90;;
3565;SDS011;1797;51.844;7.684;2023-05-10T10:04:26;1.50;;;1.30;;
3565;SDS011;1797;51.844;7.684;2023-05-10T10:07:02;4.40;;;2.58;;
3565;SDS011;1797;51.844;7.684;2023-05-10T10:09:29;4.93;;;2.10;;
3565;SDS011;1797;51.844;7.684;2023-05-10T10:11:54;3.60;;;1.88;;
3565;SDS011;1797;51.844;7.684;2023-05-10T10:14:21;1.05;;;0.85;;
3565;SDS011;1797;51.844;7.684;2023-05-10T10:16:49;0.90;;;0.90;;
3565;SDS011;1797;51.844;7.684;2023-05-10T10:19:16;2.20;;;1.50;;
3565;SDS011;1797;51.844;7.684;2023-05-10T10:21:43;3.05;;;1.48;;
3565;SDS011;1797;51.844;7.684;2023-05-10T10:24:09;4.10;;;2.47;;
3565;SDS011;1797;51.844;7.684;2023-05-10T10:26:35;1.58;;;1.48;;
3565;SDS011;1797;51.844;7.684;2023-05-10T10:29:12;2.80;;;1.50;;
3565;SDS011;1797;51.844;7.684;2023-05-10T10:34:45;2.25;;;2.08;;
3565;SDS011;1797;51.844;7.684;2023-05-10T10:37:11;4.35;;;2.05;;
3565;SDS011;1797;51.844;7.684;2023-05-10T10:39:37;4.60;;;1.65;;
3565;SDS011;1797;51.844;7.684;2023-05-10T10:42:03;2.42;;;2.20;;
3565;SDS011;1797;51.844;7.684;2023-05-10T10:47:03;6.33;;;2.27;;
3565;SDS011;1797;51.844;7.684;2023-05-10T10:50:16;4.35;;;2.78;;
3565;SDS011;1797;51.844;7.684;2023-05-10T10:52:31;2.78;;;1.83;;
3565;SDS011;1797;51.844;7.684;2023-05-10T10:55:08;2.10;;;1.88;;
3565;SDS011;1797;51.844;7.684;2023-05-10T11:00:35;7.65;;;2.22;;
3565;SDS011;1797;51.844;7.684;2023-05-10T11:03:14;5.60;;;2.40;;
3565;SDS011;1797;51.844;7.684;2023-05-10T11:05:50;2.08;;;1.80;;
3565;SDS011;1797;51.844;7.684;2023-05-10T11:08:29;4.03;;;1.75;;
3565;SDS011;1797;51.844;7.684;2023-05-10T11:13:29;3.90;;;2.07;;
3565;SDS011;1797;51.844;7.684;2023-05-10T11:15:55;5.30;;;2.50;;
3565;SDS011;1797;51.844;7.684;2023-05-10T11:20:58;5.25;;;2.50;;
3565;SDS011;1797;51.844;7.684;2023-05-10T11:24:12;3.17;;;2.10;;
3565;SDS011;1797;51.844;7.684;2023-05-10T11:26:13;3.88;;;2.42;;
3565;SDS011;1797;51.844;7.684;2023-05-10T11:28:48;4.50;;;2.40;;
3565;SDS011;1797;51.844;7.684;2023-05-10T11:31:15;8.70;;;2.30;;
3565;SDS011;1797;51.844;7.684;2023-05-10T11:33:44;6.22;;;2.45;;
3565;SDS011;1797;51.844;7.684;2023-05-10T11:36:14;4.18;;;2.00;;
3565;SDS011;1797;51.844;7.684;2023-05-10T11:38:41;3.80;;;2.28;;
3565;SDS011;1797;51.844;7.684;2023-05-10T11:41:11;7.28;;;2.45;;
3565;SDS011;1797;51.844;7.684;2023-05-10T11:43:40;4.10;;;2.40;;
3565;SDS011;1797;51.844;7.684;2023-05-10T11:46:10;3.50;;;1.98;;
3565;SDS011;1797;51.844;7.684;2023-05-10T11:48:40;1.80;;;1.42;;
3565;SDS011;1797;51.844;7.684;2023-05-10T11:51:07;6.10;;;3.80;;
3565;SDS011;1797;51.844;7.684;2023-05-10T11:53:33;4.50;;;1.92;;
3565;SDS011;1797;51.844;7.684;2023-05-10T11:56:03;3.50;;;2.40;;
3565;SDS011;1797;51.844;7.684;2023-05-10T11:58:31;4.50;;;2.50;;
3565;SDS011;1797;51.844;7.684;2023-05-10T12:00:57;6.70;;;2.40;;
3565;SDS011;1797;51.844;7.684;2023-05-10T12:03:27;7.10;;;2.07;;
3565;SDS011;1797;51.844;7.684;2023-05-10T12:05:54;2.60;;;1.80;;
3565;SDS011;1797;51.844;7.684;2023-05-10T12:08:21;7.30;;;3.13;;
3565;SDS011;1797;51.844;7.684;2023-05-10T12:10:48;3.15;;;1.92;;
3565;SDS011;1797;51.844;7.684;2023-05-10T12:13:14;1.30;;;1.10;;
3565;SDS011;1797;51.844;7.684;2023-05-10T12:15:40;3.80;;;1.67;;
3565;SDS011;1797;51.844;7.684;2023-05-10T12:18:13;3.80;;;3.00;;
3565;SDS011;1797;51.844;7.684;2023-05-10T12:20:40;1.80;;;1.50;;
3565;SDS011;1797;51.844;7.684;2023-05-10T12:23:07;2.28;;;1.77;;
3565;SDS011;1797;51.844;7.684;2023-05-10T12:25:35;6.65;;;2.00;;
3565;SDS011;1797;51.844;7.684;2023-05-10T12:28:03;3.60;;;2.58;;
3565;SDS011;1797;51.844;7.684;2023-05-10T12:30:30;3.47;;;2.30;;
3565;SDS011;1797;51.844;7.684;2023-05-10T12:35:31;2.67;;;2.42;;
3565;SDS011;1797;51.844;7.684;2023-05-10T12:37:57;7.70;;;2.30;;
3565;SDS011;1797;51.844;7.684;2023-05-10T12:40:23;6.97;;;2.85;;
3565;SDS011;1797;51.844;7.684;2023-05-10T12:42:48;6.30;;;2.70;;
3565;SDS011;1797;51.844;7.684;2023-05-10T12:45:14;15.88;;;2.78;;
3565;SDS011;1797;51.844;7.684;2023-05-10T12:47:40;3.90;;;2.67;;
3565;SDS011;1797;51.844;7.684;2023-05-10T12:50:05;6.97;;;2.42;;
3565;SDS011;1797;51.844;7.684;2023-05-10T12:52:31;2.28;;;2.08;;
3565;SDS011;1797;51.844;7.684;2023-05-10T12:54:57;3.10;;;2.13;;
3565;SDS011;1797;51.844;7.684;2023-05-10T12:57:24;3.72;;;1.90;;
3565;SDS011;1797;51.844;7.684;2023-05-10T12:59:49;10.20;;;3.78;;
3565;SDS011;1797;51.844;7.684;2023-05-10T13:02:15;6.78;;;3.00;;
3565;SDS011;1797;51.844;7.684;2023-05-10T13:04:43;2.40;;;1.67;;
3565;SDS011;1797;51.844;7.684;2023-05-10T13:07:09;4.78;;;3.38;;
3565;SDS011;1797;51.844;7.684;2023-05-10T13:09:35;4.25;;;2.80;;
3565;SDS011;1797;51.844;7.684;2023-05-10T13:12:01;3.13;;;2.20;;
3565;SDS011;1797;51.844;7.684;2023-05-10T13:14:27;3.80;;;2.00;;
3565;SDS011;1797;51.844;7.684;2023-05-10T13:16:53;4.60;;;1.63;;
3565;SDS011;1797;51.844;7.684;2023-05-10T13:19:19;2.42;;;1.65;;
3565;SDS011;1797;51.844;7.684;2023-05-10T13:21:44;6.28;;;3.17;;
3565;SDS011;1797;51.844;7.684;2023-05-10T13:24:10;2.40;;;0.90;;
3565;SDS011;1797;51.844;7.684;2023-05-10T13:26:38;4.00;;;2.38;;
3565;SDS011;1797;51.844;7.684;2023-05-10T13:29:04;7.22;;;1.33;;
3565;SDS011;1797;51.844;7.684;2023-05-10T13:31:30;3.70;;;1.17;;
3565;SDS011;1797;51.844;7.684;2023-05-10T13:33:55;10.95;;;2.33;;
3565;SDS011;1797;51.844;7.684;2023-05-10T13:36:21;3.80;;;1.50;;
3565;SDS011;1797;51.844;7.684;2023-05-10T13:38:47;2.38;;;2.17;;
3565;SDS011;1797;51.844;7.684;2023-05-10T13:41:13;4.53;;;1.27;;
3565;SDS011;1797;51.844;7.684;2023-05-10T13:43:39;1.40;;;1.30;;
3565;SDS011;1797;51.844;7.684;2023-05-10T13:46:04;2.63;;;1.20;;
3565;SDS011;1797;51.844;7.684;2023-05-10T13:48:30;2.47;;;1.25;;
3565;SDS011;1797;51.844;7.684;2023-05-10T13:50:56;3.45;;;1.40;;
3565;SDS011;1797;51.844;7.684;2023-05-10T13:53:22;5.00;;;1.30;;
3565;SDS011;1797;51.844;7.684;2023-05-10T13:55:47;2.40;;;2.20;;
3565;SDS011;1797;51.844;7.684;2023-05-10T13:58:13;1.40;;;0.93;;
3565;SDS011;1797;51.844;7.684;2023-05-10T14:00:39;1.50;;;1.40;;
3565;SDS011;1797;51.844;7.684;2023-05-10T14:03:05;3.20;;;1.13;;
3565;SDS011;1797;51.844;7.684;2023-05-10T14:05:31;1.23;;;1.13;;
3565;SDS011;1797;51.844;7.684;2023-05-10T14:07:57;1.50;;;1.10;;
3565;SDS011;1797;51.844;7.684;2023-05-10T14:10:23;2.00;;;1.00;;
3565;SDS011;1797;51.844;7.684;2023-05-10T14:12:49;1.77;;;1.63;;
3565;SDS011;1797;51.844;7.684;2023-05-10T14:15:14;1.10;;;0.80;;
3565;SDS011;1797;51.844;7.684;2023-05-10T14:17:40;0.82;;;0.80;;
3565;SDS011;1797;51.844;7.684;2023-05-10T14:20:06;1.95;;;0.98;;
3565;SDS011;1797;51.844;7.684;2023-05-10T14:22:32;3.80;;;1.07;;
3565;SDS011;1797;51.844;7.684;2023-05-10T14:24:58;4.00;;;1.40;;
3565;SDS011;1797;51.844;7.684;2023-05-10T14:27:23;4.97;;;2.77;;
3565;SDS011;1797;51.844;7.684;2023-05-10T14:29:49;2.00;;;1.40;;
3565;SDS011;1797;51.844;7.684;2023-05-10T14:32:15;7.65;;;2.15;;
3565;SDS011;1797;51.844;7.684;2023-05-10T14:34:40;2.07;;;1.37;;
3565;SDS011;1797;51.844;7.684;2023-05-10T14:37:06;3.70;;;2.10;;
3565;SDS011;1797;51.844;7.684;2023-05-10T14:39:31;1.50;;;1.40;;
3565;SDS011;1797;51.844;7.684;2023-05-10T14:41:58;2.63;;;1.52;;
3565;SDS011;1797;51.844;7.684;2023-05-10T14:44:23;2.63;;;1.03;;
3565;SDS011;1797;51.844;7.684;2023-05-10T14:46:50;3.87;;;1.67;;
3565;SDS011;1797;51.844;7.684;2023-05-10T14:49:15;2.60;;;1.30;;
3565;SDS011;1797;51.844;7.684;2023-05-10T14:51:43;2.35;;;1.95;;
3565;SDS011;1797;51.844;7.684;2023-05-10T14:54:09;2.45;;;2.08;;
3565;SDS011;1797;51.844;7.684;2023-05-10T14:56:35;7.88;;;2.83;;
3565;SDS011;1797;51.844;7.684;2023-05-10T14:59:02;8.60;;;3.70;;
3565;SDS011;1797;51.844;7.684;2023-05-10T15:01:28;3.20;;;2.10;;
3565;SDS011;1797;51.844;7.684;2023-05-10T15:03:54;4.40;;;1.80;;
3565;SDS011;1797;51.844;7.684;2023-05-10T15:06:23;5.73;;;2.47;;
3565;SDS011;1797;51.844;7.684;2023-05-10T15:08:55;1.70;;;1.60;;
3565;SDS011;1797;51.844;7.684;2023-05-10T15:11:20;3.77;;;3.10;;
3565;SDS011;1797;51.844;7.684;2023-05-10T15:13:46;2.50;;;2.23;;
3565;SDS011;1797;51.844;7.684;2023-05-10T15:16:12;4.20;;;2.47;;
3565;SDS011;1797;51.844;7.684;2023-05-10T15:18:37;3.65;;;1.98;;
3565;SDS011;1797;51.844;7.684;2023-05-10T15:21:03;2.30;;;2.10;;
3565;SDS011;1797;51.844;7.684;2023-05-10T15:23:28;5.23;;;2.37;;
3565;SDS011;1797;51.844;7.684;2023-05-10T15:25:54;13.32;;;2.72;;
3565;SDS011;1797;51.844;7.684;2023-05-10T15:28:20;5.47;;;2.33;;
3565;SDS011;1797;51.844;7.684;2023-05-10T15:30:46;3.40;;;2.22;;
3565;SDS011;1797;51.844;7.684;2023-05-10T15:33:12;2.47;;;2.27;;
3565;SDS011;1797;51.844;7.684;2023-05-10T15:35:38;7.03;;;2.88;;
3565;SDS011;1797;51.844;7.684;2023-05-10T15:38:04;3.10;;;2.47;;
3565;SDS011;1797;51.844;7.684;2023-05-10T15:40:30;4.40;;;2.40;;
3565;SDS011;1797;51.844;7.684;2023-05-10T15:42:56;15.43;;;5.15;;
3565;SDS011;1797;51.844;7.684;2023-05-10T15:45:22;4.60;;;1.92;;
3565;SDS011;1797;51.844;7.684;2023-05-10T15:47:47;5.32;;;3.53;;
3565;SDS011;1797;51.844;7.684;2023-05-10T15:50:14;5.83;;;2.70;;
3565;SDS011;1797;51.844;7.684;2023-05-10T15:52:40;6.40;;;2.92;;